Arcadia, Louisiana
Current Conditions -  °F | °C
As of 7:55 PM on Sunday 21 Dec 2014 (Local Time) from KRSN Reporting Station
Clear Clear  
Wind Chill: 50°   Ceiling: Unl
Heat Index: 50°   Visibility: 10mi
Dew Point: 47°   Wind: 7mph
Humidity: 89%   Direction: 150°SSE
Pressure: 29.96"   Gusts: NA
Location:  32.55°N, 92.92°W
Report Text: KRSN 220155Z AUTO 15006KT 10SM CLR 10/08 A2996 RMK AO2 T01010083
Loading
Personal Weather Stations






























Interactive Weather Map New forecast layout! Learn more

10-Day Weather Forecast

Advertisements
Track Severe Weather on mobile